createdAt,value
2022-11-01T00:01:40.289Z,9.63
2022-11-01T00:04:43.078Z,9.80
2022-11-01T00:07:46.104Z,13.47
2022-11-01T00:10:49.202Z,14.07
2022-11-01T00:13:52.147Z,15.77
2022-11-01T00:16:56.739Z,14.57
2022-11-01T00:19:59.468Z,11.40
2022-11-01T00:23:03.165Z,9.40
2022-11-01T00:26:07.267Z,9.63
2022-11-01T00:29:10.234Z,11.90
2022-11-01T00:32:14.631Z,13.07
2022-11-01T00:35:17.642Z,13.07
2022-11-01T00:38:21.162Z,12.53
2022-11-01T00:41:23.934Z,12.00
2022-11-01T00:44:26.791Z,13.13
2022-11-01T00:47:30.806Z,12.80
2022-11-01T00:50:33.550Z,14.10
2022-11-01T00:53:36.398Z,12.33
2022-11-01T00:56:39.654Z,13.47
2022-11-01T00:59:42.768Z,12.67
2022-11-01T01:02:47.233Z,13.20
2022-11-01T01:05:50.883Z,13.27
2022-11-01T01:08:53.602Z,13.30
2022-11-01T01:11:56.687Z,10.17
2022-11-01T01:14:59.460Z,10.13
2022-11-01T01:18:03.908Z,10.80
2022-11-01T01:21:07.368Z,12.70
2022-11-01T01:24:10.671Z,12.23
2022-11-01T01:27:13.537Z,12.13
2022-11-01T01:30:17.520Z,12.73
2022-11-01T01:33:21.811Z,11.53
2022-11-01T01:36:24.763Z,11.30
2022-11-01T01:39:27.460Z,12.47
2022-11-01T01:42:33.026Z,13.33
2022-11-01T01:45:39.138Z,12.37
2022-11-01T01:48:46.056Z,12.87
2022-11-01T01:51:49.129Z,12.70
2022-11-01T01:54:53.109Z,11.13
2022-11-01T01:57:58.737Z,10.03
2022-11-01T02:01:01.645Z,11.10
2022-11-01T02:04:10.454Z,12.27
2022-11-01T02:07:13.526Z,11.43
2022-11-01T02:10:17.991Z,12.63
2022-11-01T02:13:20.933Z,9.93
2022-11-01T02:16:44.864Z,11.63
2022-11-01T02:20:17.396Z,11.10
2022-11-01T02:23:45.150Z,10.37
2022-11-01T02:27:03.271Z,11.03
2022-11-01T02:30:16.258Z,11.17
2022-11-01T02:33:30.146Z,10.77
2022-11-01T02:36:40.265Z,10.90
2022-11-01T02:39:51.268Z,9.83
2022-11-01T02:42:58.666Z,9.53
2022-11-01T02:46:24.595Z,9.80
2022-11-01T02:49:32.457Z,10.13
2022-11-01T02:52:38.239Z,9.67
2022-11-01T02:55:42.127Z,9.93
2022-11-01T02:58:46.669Z,6.23
2022-11-01T03:01:57.830Z,8.33
2022-11-01T03:05:02.898Z,8.20
2022-11-01T03:08:09.192Z,8.80
2022-11-01T03:11:15.815Z,9.07
2022-11-01T03:14:27.732Z,9.67
2022-11-01T03:17:34.278Z,9.10
2022-11-01T03:20:49.192Z,9.83
2022-11-01T03:23:57.459Z,8.77
2022-11-01T03:27:05.304Z,9.33
2022-11-01T03:30:11.889Z,8.70
2022-11-01T03:33:16.744Z,7.97
2022-11-01T03:36:25.005Z,7.60
2022-11-01T03:39:32.724Z,8.73
2022-11-01T03:42:38.145Z,9.23
2022-11-01T03:45:42.806Z,8.47
2022-11-01T03:48:45.882Z,7.80
2022-11-01T03:51:49.975Z,7.67
2022-11-01T03:54:53.052Z,8.80
2022-11-01T03:57:57.907Z,9.27
2022-11-01T04:01:01.068Z,9.10
2022-11-01T04:04:04.060Z,8.23
2022-11-01T04:07:08.545Z,7.37
2022-11-01T04:10:12.158Z,7.90
2022-11-01T04:13:15.235Z,8.17
2022-11-01T04:16:35.861Z,9.00
2022-11-01T04:19:56.984Z,9.67
2022-11-01T04:23:01.582Z,9.97
2022-11-01T04:26:06.207Z,9.47
2022-11-01T04:29:08.938Z,9.40
2022-11-01T04:32:12.068Z,8.63
2022-11-01T04:35:14.936Z,9.37
2022-11-01T04:38:19.539Z,10.23
2022-11-01T04:41:23.598Z,9.97
2022-11-01T04:44:26.672Z,10.47
2022-11-01T04:47:29.397Z,10.90
2022-11-01T04:50:33.084Z,10.23
2022-11-01T04:53:37.212Z,9.97
2022-11-01T04:56:40.249Z,9.60
2022-11-01T04:59:42.977Z,10.50
2022-11-01T05:02:46.025Z,9.73
2022-11-01T05:05:49.337Z,10.17
2022-11-01T05:08:55.367Z,10.93
2022-11-01T05:11:58.514Z,10.70
2022-11-01T05:15:01.225Z,11.53
2022-11-01T05:18:04.068Z,11.00
2022-11-01T05:21:06.982Z,10.70
2022-11-01T05:24:11.582Z,11.10
2022-11-01T05:27:14.285Z,10.73
2022-11-01T05:30:17.751Z,11.63
2022-11-01T05:33:20.468Z,10.60
2022-11-01T05:36:23.471Z,10.50
2022-11-01T05:39:27.516Z,10.80
2022-11-01T05:42:30.224Z,9.50
2022-11-01T05:45:33.079Z,8.20
2022-11-01T05:48:36.299Z,8.50
2022-11-01T05:51:39.785Z,6.90
2022-11-01T05:54:43.862Z,7.23
2022-11-01T06:00:50.640Z,10.10
2022-11-01T06:03:53.813Z,9.33
2022-11-01T06:06:56.548Z,9.73
2022-11-01T06:10:01.025Z,10.23
2022-11-01T06:13:04.578Z,8.83
2022-11-01T06:16:08.209Z,8.83
2022-11-01T06:19:11.289Z,10.63
2022-11-01T06:22:14.381Z,9.20
2022-11-01T06:25:18.873Z,9.47
2022-11-01T06:28:21.734Z,10.33
2022-11-01T06:31:24.729Z,10.40
2022-11-01T06:34:27.540Z,13.90
2022-11-01T06:37:30.269Z,11.97
2022-11-01T06:40:34.432Z,11.17
2022-11-01T06:43:37.161Z,14.97
2022-11-01T06:46:40.230Z,15.67
2022-11-01T06:49:43.442Z,13.87
2022-11-01T06:52:46.137Z,13.43
2022-11-01T06:55:50.646Z,13.03
2022-11-01T06:58:53.824Z,12.00
2022-11-01T07:01:56.856Z,12.23
2022-11-01T07:04:59.618Z,9.67
2022-11-01T07:08:03.645Z,9.17
2022-11-01T07:11:07.918Z,9.33
2022-11-01T07:14:11.357Z,9.30
2022-11-01T07:17:14.378Z,11.53
2022-11-01T07:20:17.102Z,11.00
2022-11-01T07:23:20.377Z,7.50
2022-11-01T07:26:24.958Z,6.67
2022-11-01T07:29:27.990Z,6.90
2022-11-01T07:32:30.692Z,5.00
2022-11-01T07:35:34.698Z,5.03
2022-11-01T07:38:37.543Z,4.73
2022-11-01T07:41:42.380Z,4.50
2022-11-01T07:44:45.813Z,3.97
2022-11-01T07:47:48.984Z,4.17
2022-11-01T07:50:51.691Z,4.23
2022-11-01T07:53:54.876Z,4.10
2022-11-01T07:56:58.972Z,3.90
2022-11-01T08:00:01.985Z,3.60
2022-11-01T08:03:07.472Z,3.50
2022-11-01T08:06:10.534Z,3.30
2022-11-01T08:09:13.270Z,3.93
2022-11-01T08:12:17.869Z,3.90
2022-11-01T08:15:20.715Z,3.27
2022-11-01T08:18:24.913Z,3.10
2022-11-01T08:21:27.706Z,3.27
2022-11-01T08:24:30.361Z,4.20
2022-11-01T08:27:35.376Z,3.80
2022-11-01T08:30:40.165Z,3.53
2022-11-01T08:33:42.857Z,2.80
2022-11-01T08:36:45.541Z,2.93
2022-11-01T08:39:48.536Z,2.30
2022-11-01T08:42:52.597Z,2.47
2022-11-01T08:45:55.381Z,3.17
2022-11-01T08:49:00.640Z,2.30
2022-11-01T08:52:03.939Z,2.03
2022-11-01T08:55:07.985Z,2.07
2022-11-01T08:58:12.186Z,2.00
2022-11-01T09:01:14.980Z,1.87
2022-11-01T09:04:18.025Z,2.27
2022-11-01T09:07:21.171Z,2.00
2022-11-01T09:10:24.215Z,2.10
2022-11-01T09:13:29.060Z,2.00
2022-11-01T09:16:33.181Z,1.80
2022-11-01T09:19:36.409Z,1.70
2022-11-01T09:22:39.164Z,1.80
2022-11-01T09:25:41.994Z,1.33
2022-11-01T09:28:46.530Z,1.70
2022-11-01T09:31:52.195Z,1.47
2022-11-01T09:34:57.867Z,1.60
2022-11-01T09:38:01.913Z,1.60
2022-11-01T09:41:08.808Z,1.90
2022-11-01T09:44:17.536Z,1.60
2022-11-01T09:47:24.569Z,1.47
2022-11-01T09:50:30.140Z,1.57
2022-11-01T09:53:33.073Z,1.60
2022-11-01T09:56:41.956Z,1.50
2022-11-01T09:59:56.517Z,1.47
2022-11-01T10:03:30.091Z,1.60
2022-11-01T10:06:39.013Z,1.60
2022-11-01T10:09:53.258Z,1.40
2022-11-01T10:13:05.097Z,1.77
2022-11-01T10:16:16.279Z,1.80
2022-11-01T10:19:22.747Z,1.63
2022-11-01T10:22:31.595Z,1.40
2022-11-01T10:25:38.518Z,1.90
2022-11-01T10:28:48.646Z,1.70
2022-11-01T10:31:54.943Z,1.50
2022-11-01T10:35:01.895Z,1.47
2022-11-01T10:38:24.944Z,2.50
2022-11-01T10:41:39.281Z,1.20
2022-11-01T10:44:46.601Z,1.80
2022-11-01T10:47:58.697Z,3.07
2022-11-01T10:51:05.355Z,4.70
2022-11-01T10:54:16.395Z,1.40
2022-11-01T10:57:31.775Z,2.27
2022-11-01T11:00:38.665Z,2.00
2022-11-01T11:03:45.418Z,3.10
2022-11-01T11:06:48.399Z,1.87
2022-11-01T11:09:51.342Z,1.20
2022-11-01T11:12:59.463Z,1.30
2022-11-01T11:16:05.575Z,1.10
2022-11-01T11:19:22.534Z,1.93
2022-11-01T11:22:26.498Z,2.97
2022-11-01T11:25:35.110Z,1.37
2022-11-01T11:28:44.245Z,2.70
2022-11-01T11:31:47.117Z,1.20
2022-11-01T11:34:57.305Z,1.30
2022-11-01T11:38:02.492Z,1.30
2022-11-01T11:41:06.384Z,0.90
2022-11-01T11:44:39.881Z,1.13
2022-11-01T11:47:42.714Z,1.10
2022-11-01T11:50:47.001Z,1.70
2022-11-01T11:54:22.081Z,1.23
2022-11-01T11:57:27.504Z,1.07
2022-11-01T12:00:32.871Z,7.70
2022-11-01T12:03:47.361Z,1.27
2022-11-01T12:06:51.820Z,1.00
2022-11-01T12:09:58.633Z,1.33
2022-11-01T12:13:02.522Z,1.50
2022-11-01T12:16:20.125Z,0.90
2022-11-01T12:19:25.888Z,7.23
2022-11-01T12:22:34.392Z,3.30
2022-11-01T12:25:38.091Z,1.60
2022-11-01T12:28:45.107Z,4.50
2022-11-01T12:31:49.497Z,4.53
2022-11-01T12:34:56.643Z,1.10
2022-11-01T12:38:29.012Z,1.23
2022-11-01T12:41:40.370Z,1.30
2022-11-01T12:44:48.724Z,0.97
2022-11-01T12:47:57.266Z,0.90
2022-11-01T12:51:05.771Z,3.00
2022-11-01T12:54:16.266Z,11.77
2022-11-01T12:57:19.708Z,1.67
2022-11-01T13:00:22.646Z,3.90
2022-11-01T13:03:39.439Z,8.93
2022-11-01T13:07:03.056Z,5.77
2022-11-01T13:10:15.493Z,4.90
2022-11-01T13:13:24.307Z,1.23
2022-11-01T13:16:32.844Z,1.60
2022-11-01T13:19:43.138Z,3.10
2022-11-01T13:22:55.167Z,0.90
2022-11-01T13:26:04.282Z,1.70
2022-11-01T13:29:13.427Z,1.30
2022-11-01T13:32:25.393Z,0.90
2022-11-01T13:35:49.341Z,2.13
2022-11-01T13:38:59.722Z,4.70
2022-11-01T13:42:09.998Z,0.80
2022-11-01T13:45:33.278Z,1.10
2022-11-01T13:48:45.850Z,0.90
2022-11-01T13:51:56.679Z,1.10
2022-11-01T13:55:07.400Z,0.90
2022-11-01T13:58:19.247Z,1.10
2022-11-01T14:01:31.989Z,0.87
2022-11-01T14:04:38.979Z,1.00
2022-11-01T14:08:13.008Z,0.70
2022-11-01T14:11:45.952Z,0.70
2022-11-01T14:14:55.928Z,1.10
2022-11-01T14:18:08.609Z,0.90
2022-11-01T14:21:28.992Z,1.17
2022-11-01T14:24:35.290Z,0.83
2022-11-01T14:27:40.679Z,1.00
2022-11-01T14:30:46.740Z,0.80
2022-11-01T14:33:49.612Z,0.80
2022-11-01T14:36:54.950Z,1.00
2022-11-01T14:40:05.046Z,2.77
2022-11-01T14:43:17.988Z,1.23
2022-11-01T14:46:25.427Z,1.00
2022-11-01T14:49:34.647Z,0.83
2022-11-01T14:52:43.107Z,1.00
2022-11-01T14:55:46.048Z,1.07
2022-11-01T14:58:49.305Z,1.00
2022-11-01T15:02:02.037Z,1.17
2022-11-01T15:05:12.223Z,0.90
2022-11-01T15:08:38.952Z,1.00
2022-11-01T15:11:41.807Z,1.20
2022-11-01T15:14:47.476Z,1.10
2022-11-01T15:17:58.546Z,0.83
2022-11-01T15:21:02.223Z,0.80
2022-11-01T15:24:05.322Z,0.73
2022-11-01T15:27:15.070Z,1.30
2022-11-01T15:30:22.645Z,0.90
2022-11-01T15:33:30.986Z,0.77
2022-11-01T15:36:36.909Z,0.90
2022-11-01T15:39:39.644Z,1.80
2022-11-01T15:42:48.852Z,0.73
2022-11-01T15:45:55.389Z,1.13
2022-11-01T15:49:02.417Z,1.20
2022-11-01T15:52:08.733Z,0.80
2022-11-01T15:55:19.363Z,1.10
2022-11-01T15:58:26.226Z,1.07
2022-11-01T16:01:29.241Z,4.20
2022-11-01T16:04:50.690Z,3.07
2022-11-01T16:07:53.978Z,2.83
2022-11-01T16:10:57.344Z,2.00
2022-11-01T16:14:03.156Z,1.80
2022-11-01T16:17:09.833Z,1.90
2022-11-01T16:20:31.859Z,2.20
2022-11-01T16:23:34.963Z,1.70
2022-11-01T16:26:54.030Z,1.20
2022-11-01T16:29:56.905Z,0.90
2022-11-01T16:33:08.664Z,1.33
2022-11-01T16:36:35.244Z,2.03
2022-11-01T16:39:37.986Z,1.50
2022-11-01T16:42:41.020Z,1.83
2022-11-01T16:45:43.713Z,2.20
2022-11-01T16:48:52.743Z,2.23
2022-11-01T16:51:57.242Z,25.87
2022-11-01T16:58:08.049Z,2.60
2022-11-01T17:01:19.958Z,3.47
2022-11-01T17:04:23.342Z,2.40
2022-11-01T17:07:27.920Z,4.57
2022-11-01T17:10:30.973Z,7.00
2022-11-01T17:13:34.045Z,4.97
2022-11-01T17:16:38.229Z,4.37
2022-11-01T17:19:44.524Z,3.53
2022-11-01T17:22:50.937Z,4.10
2022-11-01T17:25:56.325Z,4.50
2022-11-01T17:28:59.420Z,4.20
2022-11-01T17:32:04.430Z,2.97
2022-11-01T17:35:07.949Z,4.23
2022-11-01T17:38:16.370Z,3.57
2022-11-01T17:41:21.164Z,3.73
2022-11-01T17:44:24.074Z,3.47
2022-11-01T17:47:27.360Z,3.13
2022-11-01T17:50:30.118Z,3.00
2022-11-01T17:53:34.737Z,3.90
2022-11-01T17:56:37.409Z,3.67
2022-11-01T17:59:40.809Z,3.90
2022-11-01T18:02:44.235Z,4.90
2022-11-01T18:05:47.370Z,5.23
2022-11-01T18:08:54.014Z,28.03
2022-11-01T18:12:05.621Z,9.07
2022-11-01T18:15:18.229Z,7.27
2022-11-01T18:18:45.434Z,9.90
2022-11-01T18:21:57.183Z,6.10
2022-11-01T18:25:06.332Z,6.17
2022-11-01T18:28:13.623Z,4.43
2022-11-01T18:31:23.476Z,3.40
2022-11-01T18:34:34.622Z,3.00
2022-11-01T18:37:43.231Z,3.00
2022-11-01T18:40:55.615Z,3.60
2022-11-01T18:43:58.900Z,3.17
2022-11-01T18:47:06.215Z,3.20
2022-11-01T18:50:21.112Z,3.23
2022-11-01T18:53:25.119Z,3.53
2022-11-01T18:56:30.545Z,3.27
2022-11-01T18:59:35.577Z,3.30
2022-11-01T19:02:39.908Z,3.90
2022-11-01T19:05:43.584Z,3.50
2022-11-01T19:08:52.578Z,3.57
2022-11-01T19:12:00.738Z,4.07
2022-11-01T19:15:09.116Z,4.17
2022-11-01T19:18:18.959Z,4.10
2022-11-01T19:21:25.339Z,4.97
2022-11-01T19:24:33.205Z,4.83
2022-11-01T19:27:37.319Z,4.40
2022-11-01T19:30:40.125Z,3.40
2022-11-01T19:33:46.057Z,4.07
2022-11-01T19:36:50.149Z,3.50
2022-11-01T19:39:54.311Z,3.33
2022-11-01T19:43:00.962Z,3.73
2022-11-01T19:46:03.956Z,4.10
2022-11-01T19:49:20.357Z,4.20
2022-11-01T19:52:27.248Z,3.93
2022-11-01T19:55:41.020Z,3.93
2022-11-01T19:58:47.112Z,3.63
2022-11-01T20:01:50.426Z,3.10
2022-11-01T20:04:58.443Z,3.37
2022-11-01T20:08:14.292Z,2.70
2022-11-01T20:11:17.517Z,2.90
2022-11-01T20:14:21.650Z,2.70
2022-11-01T20:17:24.541Z,3.03
2022-11-01T20:20:27.237Z,3.30
2022-11-01T20:23:30.648Z,3.27
2022-11-01T20:26:33.655Z,3.87
2022-11-01T20:29:37.689Z,3.80
2022-11-01T20:32:40.729Z,4.50
2022-11-01T20:35:43.882Z,6.87
2022-11-01T20:38:46.729Z,3.60
2022-11-01T20:41:49.477Z,3.77
2022-11-01T20:44:53.604Z,3.93
2022-11-01T20:47:57.260Z,4.43
2022-11-01T20:51:00.091Z,3.93
2022-11-01T20:54:03.586Z,4.27
2022-11-01T20:57:12.283Z,4.43
2022-11-01T21:00:19.972Z,4.10
2022-11-01T21:03:24.487Z,4.50
2022-11-01T21:06:32.213Z,4.60
2022-11-01T21:09:39.675Z,4.37
2022-11-01T21:12:47.504Z,4.30
2022-11-01T21:15:52.419Z,4.43
2022-11-01T21:18:59.466Z,4.57
2022-11-01T21:22:02.856Z,6.37
2022-11-01T21:25:20.466Z,7.10
2022-11-01T21:28:29.077Z,6.67
2022-11-01T21:31:35.676Z,5.83
2022-11-01T21:34:38.696Z,6.40
2022-11-01T21:37:41.700Z,6.10
2022-11-01T21:40:44.486Z,5.07
2022-11-01T21:43:47.210Z,5.17
2022-11-01T21:46:53.032Z,7.30
2022-11-01T21:49:56.060Z,6.40
2022-11-01T21:52:58.786Z,6.20
2022-11-01T21:56:02.290Z,5.97
2022-11-01T21:59:05.249Z,5.93
2022-11-01T22:02:12.309Z,6.07
2022-11-01T22:05:15.436Z,5.23
2022-11-01T22:08:18.295Z,4.30
2022-11-01T22:11:23.771Z,4.83
2022-11-01T22:14:26.621Z,3.93
2022-11-01T22:17:30.766Z,4.13
2022-11-01T22:20:33.875Z,4.77
2022-11-01T22:23:36.546Z,5.67
2022-11-01T22:26:39.860Z,5.67
2022-11-01T22:29:42.652Z,5.33
2022-11-01T22:32:47.060Z,5.03
2022-11-01T22:35:49.739Z,4.53
2022-11-01T22:38:56.259Z,3.97
2022-11-01T22:41:59.008Z,4.90
2022-11-01T22:45:01.763Z,4.40
2022-11-01T22:48:15.398Z,4.50
2022-11-01T22:51:24.967Z,4.73
2022-11-01T22:54:33.299Z,4.47
2022-11-01T22:57:42.767Z,5.93
2022-11-01T23:00:47.511Z,5.80
2022-11-01T23:03:53.977Z,5.73
2022-11-01T23:07:02.238Z,5.50
2022-11-01T23:10:08.088Z,5.73
2022-11-01T23:13:35.114Z,5.30
2022-11-01T23:16:42.653Z,5.67
2022-11-01T23:19:47.269Z,4.93
2022-11-01T23:22:50.204Z,6.07
2022-11-01T23:25:54.281Z,6.10
2022-11-01T23:28:58.921Z,6.23
2022-11-01T23:32:02.048Z,5.33
2022-11-01T23:35:14.046Z,6.80
2022-11-01T23:38:21.050Z,6.80
2022-11-01T23:41:26.912Z,6.47
2022-11-01T23:44:31.900Z,5.97
2022-11-01T23:47:38.288Z,6.90
2022-11-01T23:50:42.818Z,5.60
2022-11-01T23:53:47.240Z,4.10
2022-11-01T23:56:50.014Z,5.30
2022-11-01T23:59:53.665Z,6.10
